Time;durP1;ratioP1;P1;durP2;ratioP2;P2;SDS_P1;SDS_P2;PMS_P1;PMS_P2;Temp;Humidity;BMP_temperature;BMP_pressure;BME280_temperature;BME280_humidity;BME280_pressure;Samples;Min_cycle;Max_cycle;Signal;HPM_P1;HPM_P2
2023/10/03 00:00:12;;;;;;;55.17;50.90;;;;;;;;;;5032644;28;20041;-58
2023/10/03 00:02:37;;;;;;;43.47;40.08;;;;;;;;;;5032601;28;20104;-59
2023/10/03 00:05:03;;;;;;;34.70;31.87;;;;;;;;;;5032881;28;20545;-60
2023/10/03 00:07:28;;;;;;;74.78;69.35;;;;;;;;;;5032941;28;20108;-60
2023/10/03 00:09:53;;;;;;;68.07;62.80;;;;;;;;;;5032817;28;20052;-60
2023/10/03 00:12:18;;;;;;;44.58;40.88;;;;;;;;;;5033013;28;20020;-59
2023/10/03 00:14:44;;;;;;;42.17;38.70;;;;;;;;;;5032969;28;20033;-59
2023/10/03 00:17:09;;;;;;;32.33;29.43;;;;;;;;;;5032621;28;20412;-59
2023/10/03 00:19:34;;;;;;;55.93;51.27;;;;;;;;;;5032440;28;20416;-60
2023/10/03 00:21:59;;;;;;;46.23;42.60;;;;;;;;;;5032420;28;20025;-59
2023/10/03 00:24:24;;;;;;;90.80;84.45;;;;;;;;;;5032533;28;20032;-60
2023/10/03 00:26:53;;;;;;;74.63;69.50;;;;;;;;;;5033065;28;20033;-59
2023/10/03 00:29:23;;;;;;;59.55;55.15;;;;;;;;;;5031875;28;20182;-58
2023/10/03 00:31:49;;;;;;;66.35;61.60;;;;;;;;;;5032047;28;20038;-60
2023/10/03 00:34:15;;;;;;;32.60;29.58;;;;;;;;;;5032307;28;20096;-59
2023/10/03 00:36:40;;;;;;;43.47;39.73;;;;;;;;;;5032304;28;20160;-59
2023/10/03 00:39:06;;;;;;;48.30;44.80;;;;;;;;;;5031912;28;20057;-58
2023/10/03 00:41:34;;;;;;;27.90;25.25;;;;;;;;;;5031724;28;20419;-58
2023/10/03 00:44:03;;;;;;;53.97;49.47;;;;;;;;;;5030399;28;20025;-57
2023/10/03 00:46:30;;;;;;;35.03;32.17;;;;;;;;;;5031992;28;20021;-59
2023/10/03 00:48:55;;;;;;;19.27;15.50;;;;;;;;;;5032110;28;20028;-60
2023/10/03 00:51:21;;;;;;;54.65;50.63;;;;;;;;;;5031890;28;20017;-60
2023/10/03 00:53:47;;;;;;;43.83;40.40;;;;;;;;;;5031729;28;20465;-60
2023/10/03 00:56:12;;;;;;;39.30;35.78;;;;;;;;;;5031468;28;20468;-59
2023/10/03 00:58:37;;;;;;;30.17;27.37;;;;;;;;;;5031902;28;20041;-59
2023/10/03 01:01:04;;;;;;;43.00;39.75;;;;;;;;;;5031342;28;21062;-59
2023/10/03 01:03:36;;;;;;;64.05;59.28;;;;;;;;;;5031409;28;20095;-60
2023/10/03 01:06:08;;;;;;;72.53;67.35;;;;;;;;;;5031358;28;20042;-58
2023/10/03 01:08:38;;;;;;;68.68;63.58;;;;;;;;;;5031840;28;20084;-59
2023/10/03 01:11:04;;;;;;;52.80;48.70;;;;;;;;;;5031108;28;20018;-60
2023/10/03 01:13:30;;;;;;;56.83;52.30;;;;;;;;;;5031641;28;20064;-59
2023/10/03 01:15:55;;;;;;;60.13;55.40;;;;;;;;;;5031435;28;20026;-60
2023/10/03 01:18:22;;;;;;;53.90;49.83;;;;;;;;;;5031212;28;20052;-58
2023/10/03 01:20:50;;;;;;;68.63;63.90;;;;;;;;;;5041993;28;20014;-60
2023/10/03 01:23:16;;;;;;;39.67;36.47;;;;;;;;;;5038472;28;20085;-58
2023/10/03 01:25:44;;;;;;;53.13;49.17;;;;;;;;;;5035737;28;20084;-59
2023/10/03 01:28:10;;;;;;;71.32;66.25;;;;;;;;;;5031620;28;20013;-60
2023/10/03 01:30:40;;;;;;;46.25;42.65;;;;;;;;;;5030921;28;20151;-59
2023/10/03 01:33:06;;;;;;;47.83;44.15;;;;;;;;;;5031424;28;20493;-59
2023/10/03 01:35:32;;;;;;;50.00;46.15;;;;;;;;;;5031136;28;20025;-58
2023/10/03 01:37:57;;;;;;;59.20;55.10;;;;;;;;;;5031180;28;20377;-58
2023/10/03 01:40:22;;;;;;;108.25;100.78;;;;;;;;;;5030928;28;20144;-57
2023/10/03 01:42:47;;;;;;;59.70;55.40;;;;;;;;;;5030995;28;20033;-60
2023/10/03 01:45:13;;;;;;;48.58;44.78;;;;;;;;;;5030846;28;20021;-60
2023/10/03 01:47:40;;;;;;;30.10;27.50;;;;;;;;;;5030841;28;20033;-60
2023/10/03 01:50:06;;;;;;;45.75;42.08;;;;;;;;;;5030666;28;20385;-59
2023/10/03 01:52:32;;;;;;;30.67;27.92;;;;;;;;;;5031101;28;20024;-59
2023/10/03 01:54:58;;;;;;;;;;;;;;;;;;5031414;28;20496;-58
2023/10/03 01:57:23;;;;;;;29.00;26.30;;;;;;;;;;5031216;28;19904;-59
2023/10/03 01:59:50;;;;;;;52.20;47.90;;;;;;;;;;5030672;28;20026;-60
2023/10/03 02:02:15;;;;;;;39.45;36.38;;;;;;;;;;5030990;28;20030;-59
2023/10/03 02:04:41;;;;;;;53.20;49.33;;;;;;;;;;5030960;28;20505;-59
2023/10/03 02:07:06;;;;;;;54.83;50.83;;;;;;;;;;5031177;28;20017;-59
2023/10/03 02:09:31;;;;;;;53.37;48.67;;;;;;;;;;5030348;28;20025;-59
2023/10/03 02:11:59;;;;;;;32.78;30.10;;;;;;;;;;5030873;28;20419;-58
2023/10/03 02:14:24;;;;;;;34.78;31.80;;;;;;;;;;5030999;28;20470;-58
2023/10/03 02:16:51;;;;;;;40.83;37.38;;;;;;;;;;5030802;28;20031;-59
2023/10/03 02:19:17;;;;;;;53.63;49.42;;;;;;;;;;5032710;28;20048;-58
2023/10/03 02:21:42;;;;;;;26.20;23.92;;;;;;;;;;5034850;28;20385;-59
2023/10/03 02:24:08;;;;;;;40.50;37.33;;;;;;;;;;5033310;28;20065;-59
2023/10/03 02:26:33;;;;;;;35.40;32.10;;;;;;;;;;5034624;28;20068;-59
2023/10/03 02:29:00;;;;;;;64.63;59.60;;;;;;;;;;5034365;28;20061;-60
2023/10/03 02:31:25;;;;;;;28.45;25.92;;;;;;;;;;5034222;28;20083;-58
2023/10/03 02:33:50;;;;;;;43.53;40.00;;;;;;;;;;5034595;28;20416;-60
2023/10/03 02:36:15;;;;;;;48.58;44.92;;;;;;;;;;5034515;28;20022;-59
2023/10/03 02:38:41;;;;;;;27.70;25.30;;;;;;;;;;5034355;28;20060;-61
2023/10/03 02:41:07;;;;;;;31.13;28.50;;;;;;;;;;5034270;28;20037;-60
2023/10/03 02:43:34;;;;;;;31.88;28.95;;;;;;;;;;5035972;28;20570;-58
2023/10/03 02:46:00;;;;;;;55.80;51.47;;;;;;;;;;5037464;28;20083;-57
2023/10/03 02:48:25;;;;;;;34.50;31.63;;;;;;;;;;5036731;28;20524;-59
2023/10/03 02:50:51;;;;;;;36.93;34.07;;;;;;;;;;5036885;28;20018;-60
2023/10/03 02:53:20;;;;;;;63.65;59.22;;;;;;;;;;5035039;28;20488;-60
2023/10/03 02:55:49;;;;;;;60.10;55.65;;;;;;;;;;5034358;28;20016;-59
2023/10/03 02:58:14;;;;;;;45.38;41.60;;;;;;;;;;5034357;28;20017;-58
2023/10/03 03:00:46;;;;;;;45.63;42.00;;;;;;;;;;5034085;28;20017;-60
2023/10/03 03:03:11;;;;;;;45.78;42.10;;;;;;;;;;5034627;28;20029;-59
2023/10/03 03:05:37;;;;;;;54.72;50.58;;;;;;;;;;5034371;28;20022;-58
2023/10/03 03:08:40;;;;;;;45.63;42.13;;;;;;;;;;5034206;28;20022;-59
2023/10/03 03:11:00;;;;;;;49.50;45.63;;;;;;;;;;5031239;28;20036;-59
2023/10/03 03:13:26;;;;;;;126.07;117.38;;;;;;;;;;5033954;28;20013;-59
2023/10/03 03:15:53;;;;;;;38.28;35.13;;;;;;;;;;5033549;28;20489;-57
2023/10/03 03:18:21;;;;;;;48.97;44.97;;;;;;;;;;5033464;28;20022;-58
2023/10/03 03:20:57;;;;;;;106.50;99.38;;;;;;;;;;5033286;28;20025;-60
2023/10/03 03:23:23;;;;;;;83.82;78.03;;;;;;;;;;5033544;28;20033;-60
2023/10/03 03:25:57;;;;;;;37.50;34.53;;;;;;;;;;5033613;28;20061;-58
2023/10/03 03:28:23;;;;;;;62.00;57.42;;;;;;;;;;5033853;28;20060;-59
2023/10/03 03:30:56;;;;;;;27.60;24.73;;;;;;;;;;5032926;28;20018;-59
2023/10/03 03:33:22;;;;;;;42.83;39.20;;;;;;;;;;5033289;28;20021;-59
2023/10/03 03:35:48;;;;;;;48.15;44.45;;;;;;;;;;5033436;28;20026;-58
2023/10/03 03:38:20;;;;;;;24.73;22.25;;;;;;;;;;5033304;28;20041;-57
2023/10/03 03:40:46;;;;;;;;;;;;;;;;;;5033607;28;20029;-59
2023/10/03 03:43:12;;;;;;;25.98;23.52;;;;;;;;;;5033515;28;19913;-60
2023/10/03 03:45:37;;;;;;;34.83;32.00;;;;;;;;;;5033221;28;20028;-59
2023/10/03 03:48:03;;;;;;;28.33;25.70;;;;;;;;;;5033108;28;20029;-58
2023/10/03 03:50:29;;;;;;;39.45;36.30;;;;;;;;;;5032825;28;20043;-59
2023/10/03 03:52:58;;;;;;;50.97;46.78;;;;;;;;;;5033345;28;20025;-59
2023/10/03 03:55:23;;;;;;;55.90;51.85;;;;;;;;;;5033128;28;20021;-60
2023/10/03 03:57:51;;;;;;;37.40;34.37;;;;;;;;;;5033170;28;20557;-59
2023/10/03 04:00:20;;;;;;;21.77;19.02;;;;;;;;;;5032435;28;20032;-57
2023/10/03 04:02:46;;;;;;;53.22;49.30;;;;;;;;;;5031946;28;20041;-61
2023/10/03 04:05:12;;;;;;;47.28;43.10;;;;;;;;;;5030425;28;20030;-58
2023/10/03 04:07:40;;;;;;;32.70;30.00;;;;;;;;;;5032891;28;20059;-60
2023/10/03 04:10:06;;;;;;;25.73;22.50;;;;;;;;;;5032537;28;20017;-60
2023/10/03 04:12:38;;;;;;;31.45;28.75;;;;;;;;;;5032818;28;20199;-60
2023/10/03 04:15:05;;;;;;;58.03;53.50;;;;;;;;;;5032950;28;20021;-59
2023/10/03 04:17:31;;;;;;;25.95;23.48;;;;;;;;;;5033631;28;20438;-60
2023/10/03 04:19:58;;;;;;;25.17;22.67;;;;;;;;;;5032808;28;20116;-59
2023/10/03 04:22:23;;;;;;;63.95;59.22;;;;;;;;;;5032476;28;20449;-59
2023/10/03 04:24:48;;;;;;;38.65;35.28;;;;;;;;;;5032196;28;20030;-60
2023/10/03 04:27:13;;;;;;;74.13;68.73;;;;;;;;;;5031245;28;20013;-59
2023/10/03 04:29:38;;;;;;;26.73;24.00;;;;;;;;;;5031853;28;20477;-60
2023/10/03 04:32:04;;;;;;;59.50;55.03;;;;;;;;;;5032300;28;20044;-59
2023/10/03 04:34:29;;;;;;;35.40;32.23;;;;;;;;;;5032233;28;20017;-58
2023/10/03 04:36:54;;;;;;;35.25;32.08;;;;;;;;;;5032173;28;20543;-59
2023/10/03 04:39:20;;;;;;;20.93;18.03;;;;;;;;;;5031671;28;20021;-59
2023/10/03 04:41:45;;;;;;;73.53;68.07;;;;;;;;;;5031677;28;20028;-59
2023/10/03 04:44:15;;;;;;;46.17;42.57;;;;;;;;;;5032011;28;20021;-60
2023/10/03 04:46:41;;;;;;;41.92;38.60;;;;;;;;;;5032041;28;20029;-58
2023/10/03 04:49:07;;;;;;;32.35;29.35;;;;;;;;;;5031776;28;20029;-60
2023/10/03 04:51:32;;;;;;;60.15;55.80;;;;;;;;;;5031702;28;20060;-59
2023/10/03 04:53:58;;;;;;;23.23;20.85;;;;;;;;;;5032006;28;20477;-57
2023/10/03 04:56:23;;;;;;;26.73;24.17;;;;;;;;;;5031971;28;20053;-60
2023/10/03 04:58:48;;;;;;;24.38;22.00;;;;;;;;;;5031521;28;20025;-61
2023/10/03 05:01:14;;;;;;;24.00;21.60;;;;;;;;;;5031289;28;20388;-60
2023/10/03 05:03:39;;;;;;;20.38;15.98;;;;;;;;;;5031582;28;20029;-59
2023/10/03 05:06:04;;;;;;;41.03;37.60;;;;;;;;;;5031880;28;20025;-59
2023/10/03 05:08:30;;;;;;;42.13;38.33;;;;;;;;;;5031456;28;20013;-60
2023/10/03 05:10:55;;;;;;;33.22;30.20;;;;;;;;;;5031246;28;20021;-60
2023/10/03 05:13:20;;;;;;;40.13;36.63;;;;;;;;;;5031673;28;20108;-60
2023/10/03 05:15:45;;;;;;;34.83;32.00;;;;;;;;;;5031582;28;20013;-60
2023/10/03 05:18:10;;;;;;;32.97;30.13;;;;;;;;;;5031247;28;20023;-60
2023/10/03 05:20:40;;;;;;;68.90;63.95;;;;;;;;;;5031056;28;20519;-60
2023/10/03 05:23:05;;;;;;;45.10;41.35;;;;;;;;;;5031547;28;20095;-60
2023/10/03 05:25:36;;;;;;;58.93;54.60;;;;;;;;;;5031692;28;20533;-58
2023/10/03 05:28:01;;;;;;;41.80;38.33;;;;;;;;;;5031833;28;20096;-60
2023/10/03 05:30:29;;;;;;;51.67;47.80;;;;;;;;;;5029330;28;20168;-59
2023/10/03 05:32:54;;;;;;;35.15;31.98;;;;;;;;;;5031491;28;20068;-58
2023/10/03 05:35:21;;;;;;;42.40;39.03;;;;;;;;;;5031605;28;20025;-59
2023/10/03 05:37:46;;;;;;;36.00;32.75;;;;;;;;;;5031172;28;20528;-57
2023/10/03 05:40:12;;;;;;;113.10;105.10;;;;;;;;;;5029425;28;20033;-58
2023/10/03 05:42:41;;;;;;;95.50;88.60;;;;;;;;;;5031285;28;20022;-58
2023/10/03 05:45:08;;;;;;;49.88;45.53;;;;;;;;;;5030944;28;20490;-58
2023/10/03 05:47:33;;;;;;;27.38;24.45;;;;;;;;;;5031318;28;20026;-59
2023/10/03 05:49:58;;;;;;;24.20;21.88;;;;;;;;;;5042591;28;20028;-59
2023/10/03 05:52:24;;;;;;;43.45;39.40;;;;;;;;;;5050346;28;20029;-60
2023/10/03 05:54:49;;;;;;;69.40;63.90;;;;;;;;;;5050466;28;20201;-60
2023/10/03 05:57:14;;;;;;;28.40;25.83;;;;;;;;;;5050998;28;20048;-58
2023/10/03 05:59:39;;;;;;;41.93;38.00;;;;;;;;;;5050063;28;20032;-60
2023/10/03 06:02:05;;;;;;;68.23;62.03;;;;;;;;;;5051105;28;20476;-57
2023/10/03 06:04:35;;;;;;;58.35;54.00;;;;;;;;;;5050965;28;20016;-58
2023/10/03 06:07:02;;;;;;;53.92;49.33;;;;;;;;;;5050956;28;20392;-60
2023/10/03 06:09:27;;;;;;;;;;;;;;;;;;5050771;28;20081;-59
2023/10/03 06:11:53;;;;;;;34.25;31.27;;;;;;;;;;5050655;28;19986;-60
2023/10/03 06:14:18;;;;;;;30.15;27.35;;;;;;;;;;5050806;28;20024;-59
2023/10/03 06:16:44;;;;;;;57.63;53.17;;;;;;;;;;5051254;28;20021;-59
2023/10/03 06:19:10;;;;;;;84.47;78.07;;;;;;;;;;5050191;28;20033;-58
2023/10/03 06:21:35;;;;;;;65.25;60.42;;;;;;;;;;5049358;28;20436;-59
2023/10/03 06:24:01;;;;;;;51.47;47.40;;;;;;;;;;5042621;28;20076;-59
2023/10/03 06:26:26;;;;;;;83.63;77.40;;;;;;;;;;5030791;28;20436;-58
2023/10/03 06:28:51;;;;;;;55.53;51.23;;;;;;;;;;5030712;28;20512;-58
2023/10/03 06:31:20;;;;;;;57.37;52.90;;;;;;;;;;5032213;28;20018;-59
2023/10/03 06:33:45;;;;;;;91.57;84.20;;;;;;;;;;5033848;28;20030;-59
2023/10/03 06:36:12;;;;;;;52.17;48.28;;;;;;;;;;5033232;28;20024;-56
2023/10/03 06:38:38;;;;;;;43.05;39.75;;;;;;;;;;5030652;28;20071;-59
2023/10/03 06:41:04;;;;;;;147.20;134.88;;;;;;;;;;5030264;28;20466;-60
2023/10/03 06:43:29;;;;;;;41.95;38.63;;;;;;;;;;5030308;28;20025;-59
2023/10/03 06:45:54;;;;;;;107.50;99.07;;;;;;;;;;5030446;28;20032;-59
2023/10/03 06:48:21;;;;;;;68.20;62.67;;;;;;;;;;5030473;28;20631;-59
2023/10/03 06:50:47;;;;;;;162.05;145.52;;;;;;;;;;5029935;28;20086;-58
2023/10/03 06:53:13;;;;;;;139.05;129.85;;;;;;;;;;5030513;28;20448;-60
2023/10/03 06:55:38;;;;;;;121.30;112.72;;;;;;;;;;5030369;28;20014;-60
2023/10/03 06:58:03;;;;;;;87.57;81.13;;;;;;;;;;5030470;28;20032;-58
2023/10/03 07:00:31;;;;;;;129.40;117.37;;;;;;;;;;5029973;28;20083;-60
2023/10/03 07:02:56;;;;;;;124.75;112.50;;;;;;;;;;5030219;28;20065;-60
2023/10/03 07:05:21;;;;;;;99.35;92.03;;;;;;;;;;5033352;28;20528;-59
2023/10/03 07:07:47;;;;;;;157.57;146.00;;;;;;;;;;5034402;28;20025;-59
2023/10/03 07:10:12;;;;;;;69.65;64.72;;;;;;;;;;5033397;28;20053;-58
2023/10/03 07:12:38;;;;;;;91.67;85.40;;;;;;;;;;5034179;28;20042;-58
2023/10/03 07:15:06;;;;;;;88.05;82.38;;;;;;;;;;5034278;28;20642;-59
2023/10/03 07:17:31;;;;;;;251.07;223.77;;;;;;;;;;5033896;28;20044;-58
2023/10/03 07:19:57;;;;;;;186.53;172.93;;;;;;;;;;5033122;28;20448;-58
2023/10/03 07:22:22;;;;;;;211.30;194.20;;;;;;;;;;5032397;28;20025;-58
2023/10/03 07:24:47;;;;;;;171.43;159.83;;;;;;;;;;5033668;28;20026;-59
2023/10/03 07:27:14;;;;;;;116.50;109.03;;;;;;;;;;5033524;28;20017;-58
2023/10/03 07:29:42;;;;;;;237.82;221.07;;;;;;;;;;5033047;28;20036;-60
2023/10/03 07:32:12;;;;;;;323.65;289.45;;;;;;;;;;5033826;28;20592;-57
2023/10/03 07:34:42;;;;;;;224.85;208.23;;;;;;;;;;5033933;28;20071;-59
2023/10/03 07:37:07;;;;;;;293.83;268.23;;;;;;;;;;5033639;28;20405;-58
2023/10/03 07:39:32;;;;;;;202.00;187.07;;;;;;;;;;5033101;28;20021;-57
2023/10/03 07:41:57;;;;;;;219.07;197.00;;;;;;;;;;5033814;28;20116;-58
2023/10/03 07:44:25;;;;;;;209.07;189.17;;;;;;;;;;5034478;28;20025;-59
2023/10/03 07:46:51;;;;;;;186.30;172.48;;;;;;;;;;5034474;28;20057;-59
2023/10/03 07:49:16;;;;;;;167.80;153.20;;;;;;;;;;5033085;28;20106;-61
2023/10/03 07:51:41;;;;;;;165.90;152.45;;;;;;;;;;5033653;28;20297;-60
2023/10/03 07:54:07;;;;;;;171.73;160.27;;;;;;;;;;5033150;28;20056;-58
2023/10/03 07:56:33;;;;;;;366.50;325.50;;;;;;;;;;5033231;28;20051;-59
2023/10/03 07:59:01;;;;;;;148.60;137.10;;;;;;;;;;5033394;28;20017;-58
2023/10/03 08:01:26;;;;;;;243.00;223.05;;;;;;;;;;5033147;28;20753;-59
2023/10/03 08:03:55;;;;;;;213.63;196.15;;;;;;;;;;5032896;28;20036;-59
2023/10/03 08:06:22;;;;;;;203.43;188.15;;;;;;;;;;5033463;28;20067;-58
2023/10/03 08:08:48;;;;;;;226.63;210.20;;;;;;;;;;5033242;28;20033;-60
2023/10/03 08:11:13;;;;;;;208.55;191.10;;;;;;;;;;5033166;28;20432;-60
2023/10/03 08:13:41;;;;;;;141.50;131.80;;;;;;;;;;5033685;28;20482;-60
2023/10/03 08:16:06;;;;;;;291.77;265.38;;;;;;;;;;5032437;28;20063;-59
2023/10/03 08:18:36;;;;;;;286.70;263.65;;;;;;;;;;5033047;28;20342;-59
2023/10/03 08:21:03;;;;;;;277.00;249.75;;;;;;;;;;5032532;28;20064;-60
2023/10/03 08:23:28;;;;;;;203.82;188.82;;;;;;;;;;5032806;28;20014;-60
2023/10/03 08:26:01;;;;;;;229.77;212.93;;;;;;;;;;5032737;28;20159;-59
2023/10/03 08:28:28;;;;;;;208.02;193.10;;;;;;;;;;5032863;28;20013;-60
2023/10/03 08:30:53;;;;;;;229.70;213.88;;;;;;;;;;5032126;28;20040;-58
2023/10/03 08:33:19;;;;;;;283.27;259.60;;;;;;;;;;5032934;28;20043;-60
2023/10/03 08:35:46;;;;;;;232.07;210.98;;;;;;;;;;5032854;28;20025;-61
2023/10/03 08:38:13;;;;;;;288.98;266.88;;;;;;;;;;5032692;28;20017;-60
2023/10/03 08:40:42;;;;;;;263.52;243.70;;;;;;;;;;5032063;28;20052;-59
2023/10/03 08:43:10;;;;;;;299.25;276.00;;;;;;;;;;5032741;28;20120;-59
2023/10/03 08:45:38;;;;;;;334.17;302.75;;;;;;;;;;5036067;28;20017;-60
2023/10/03 08:48:06;;;;;;;205.23;190.77;;;;;;;;;;5036400;28;20084;-60
2023/10/03 08:50:36;;;;;;;230.65;213.70;;;;;;;;;;5034755;28;20021;-59
2023/10/03 08:53:48;;;;;;;277.02;256.05;;;;;;;;;;5034327;28;20025;-59
2023/10/03 08:55:48;;;;;;;224.77;209.32;;;;;;;;;;5028618;28;20063;-60
2023/10/03 08:58:15;;;;;;;318.35;293.90;;;;;;;;;;5032360;28;20417;-59
2023/10/03 09:00:44;;;;;;;230.07;214.38;;;;;;;;;;5031848;28;20032;-59
2023/10/03 09:03:12;;;;;;;276.55;254.45;;;;;;;;;;5033872;28;20025;-58
2023/10/03 09:05:39;;;;;;;375.30;343.02;;;;;;;;;;5033294;28;20358;-58
2023/10/03 09:08:08;;;;;;;280.83;256.83;;;;;;;;;;5033903;28;20469;-58
2023/10/03 09:10:34;;;;;;;378.10;347.25;;;;;;;;;;5033068;28;20037;-60
2023/10/03 09:13:06;;;;;;;260.80;241.45;;;;;;;;;;5033263;28;20018;-61
2023/10/03 09:15:32;;;;;;;310.98;286.23;;;;;;;;;;5033279;28;20104;-60
2023/10/03 09:17:58;;;;;;;341.67;314.27;;;;;;;;;;5032606;28;20064;-60
2023/10/03 09:20:31;;;;;;;346.98;320.30;;;;;;;;;;5031937;28;20021;-60
2023/10/03 09:23:05;;;;;;;430.33;394.58;;;;;;;;;;5032672;28;20385;-59
2023/10/03 09:25:31;;;;;;;486.75;443.50;;;;;;;;;;5012308;28;20034;-58
2023/10/03 09:27:59;;;;;;;;;;;;;;;;;;5012553;28;20029;-60
2023/10/03 09:30:24;;;;;;;455.10;415.02;;;;;;;;;;5011734;28;20004;-60
2023/10/03 09:32:54;;;;;;;321.47;297.63;;;;;;;;;;5010384;28;20269;-60
2023/10/03 09:35:20;;;;;;;368.52;338.80;;;;;;;;;;5011555;28;20433;-60
2023/10/03 09:37:48;;;;;;;;;;;;;;;;;;5012384;28;20013;-60
2023/10/03 09:40:16;;;;;;;424.17;387.23;;;;;;;;;;5011216;28;19928;-60
2023/10/03 09:42:48;;;;;;;386.30;356.08;;;;;;;;;;5011548;28;20061;-59
2023/10/03 09:45:16;;;;;;;;;;;;;;;;;;5012529;28;20038;-61
2023/10/03 09:47:42;;;;;;;410.00;376.02;;;;;;;;;;5011209;28;19952;-59
2023/10/03 09:50:09;;;;;;;307.83;277.38;;;;;;;;;;5011308;28;20021;-60
2023/10/03 09:52:36;;;;;;;370.75;342.88;;;;;;;;;;5011784;28;20024;-60
2023/10/03 09:55:17;;;;;;;442.67;408.08;;;;;;;;;;5011548;28;20022;-60
2023/10/03 09:57:42;;;;;;;421.50;385.88;;;;;;;;;;5012022;28;20014;-61
2023/10/03 10:00:23;;;;;;;337.42;304.45;;;;;;;;;;5011572;28;20026;-59
2023/10/03 10:02:48;;;;;;;398.13;367.83;;;;;;;;;;5027565;28;20033;-59
2023/10/03 10:05:19;;;;;;;540.45;495.27;;;;;;;;;;5011344;28;20026;-58
2023/10/03 10:08:06;;;;;;;523.47;481.08;;;;;;;;;;5011561;28;20539;-61
2023/10/03 10:10:33;;;;;;;445.08;412.23;;;;;;;;;;5010766;28;20030;-60
2023/10/03 10:13:20;;;;;;;416.38;386.25;;;;;;;;;;5011431;28;20018;-60
2023/10/03 10:16:13;;;;;;;441.75;409.33;;;;;;;;;;5011043;28;20022;-58
2023/10/03 10:18:44;;;;;;;420.23;379.27;;;;;;;;;;5010071;28;20038;-61
2023/10/03 10:21:26;;;;;;;388.58;357.83;;;;;;;;;;5010755;28;20018;-61
2023/10/03 10:24:10;;;;;;;477.85;439.45;;;;;;;;;;5017384;28;20486;-59
2023/10/03 10:26:35;;;;;;;475.33;428.00;;;;;;;;;;5030904;28;20025;-59
2023/10/03 10:29:05;;;;;;;477.10;438.87;;;;;;;;;;5030464;28;20662;-60
2023/10/03 10:31:38;;;;;;;411.75;377.63;;;;;;;;;;5029798;28;20416;-60
2023/10/03 10:34:29;;;;;;;417.13;383.45;;;;;;;;;;5030960;28;20053;-60
2023/10/03 10:36:55;;;;;;;410.25;372.02;;;;;;;;;;5028389;28;20505;-60
2023/10/03 10:39:23;;;;;;;397.88;366.77;;;;;;;;;;5031331;28;20029;-61
2023/10/03 10:42:09;;;;;;;514.17;474.98;;;;;;;;;;5034532;28;20028;-60
2023/10/03 10:44:34;;;;;;;387.48;357.45;;;;;;;;;;5034123;28;20025;-61
2023/10/03 10:47:06;;;;;;;317.13;290.60;;;;;;;;;;5034272;28;20025;-59
2023/10/03 10:49:31;;;;;;;436.58;392.95;;;;;;;;;;5033895;28;20014;-58
2023/10/03 10:51:57;;;;;;;357.87;330.00;;;;;;;;;;5034307;28;20014;-58
2023/10/03 10:54:24;;;;;;;359.55;329.10;;;;;;;;;;5034253;28;20025;-59
2023/10/03 10:56:57;;;;;;;432.65;396.85;;;;;;;;;;5034044;28;20197;-60
2023/10/03 10:59:26;;;;;;;496.48;452.48;;;;;;;;;;5033754;28;20119;-59
2023/10/03 11:01:51;;;;;;;389.98;356.90;;;;;;;;;;5033877;28;20358;-60
2023/10/03 11:04:26;;;;;;;411.23;376.90;;;;;;;;;;5034178;28;20056;-60
2023/10/03 11:06:52;;;;;;;437.92;404.67;;;;;;;;;;5033776;28;20388;-59
2023/10/03 11:09:20;;;;;;;418.85;386.02;;;;;;;;;;5033678;28;20060;-61
2023/10/03 11:11:46;;;;;;;355.83;326.52;;;;;;;;;;5034268;28;20014;-58
2023/10/03 11:14:11;;;;;;;455.08;418.10;;;;;;;;;;5033709;28;20032;-61
2023/10/03 11:16:36;;;;;;;412.20;379.23;;;;;;;;;;5033841;28;20084;-59
2023/10/03 11:19:02;;;;;;;429.02;394.10;;;;;;;;;;5033738;28;20029;-59
2023/10/03 11:21:30;;;;;;;435.13;397.85;;;;;;;;;;5032138;28;20048;-59
2023/10/03 11:24:12;;;;;;;393.70;362.15;;;;;;;;;;5033541;28;20018;-59
2023/10/03 11:26:50;;;;;;;381.02;347.83;;;;;;;;;;5033697;28;20025;-60
2023/10/03 11:29:15;;;;;;;;;;;;;;;;;;5034020;28;20033;-60
2023/10/03 11:31:44;;;;;;;400.35;368.00;;;;;;;;;;5032311;28;19912;-60
2023/10/03 11:34:09;;;;;;;375.95;347.35;;;;;;;;;;5033407;28;20041;-60
2023/10/03 11:36:41;;;;;;;437.97;404.57;;;;;;;;;;5033731;28;20437;-59
2023/10/03 11:39:07;;;;;;;400.35;369.05;;;;;;;;;;5033463;28;20025;-59
2023/10/03 11:41:33;;;;;;;511.77;473.97;;;;;;;;;;5032924;28;20033;-60
2023/10/03 11:43:58;;;;;;;;;;;;;;;;;;5033529;28;20065;-60
2023/10/03 11:46:23;;;;;;;337.10;309.80;;;;;;;;;;5033331;28;20458;-59
2023/10/03 11:48:55;;;;;;;410.47;377.30;;;;;;;;;;5033581;28;20021;-59
2023/10/03 11:51:20;;;;;;;381.33;351.00;;;;;;;;;;5031170;28;20024;-60
2023/10/03 11:53:46;;;;;;;524.93;483.07;;;;;;;;;;5033396;28;20017;-59
2023/10/03 11:56:11;;;;;;;;;;;;;;;;;;5033940;28;20030;-60
2023/10/03 11:58:36;;;;;;;404.65;371.60;;;;;;;;;;5033228;28;19905;-60
2023/10/03 12:01:01;;;;;;;;;;;;;;;;;;5033261;28;20041;-60
2023/10/03 12:03:28;;;;;;;430.98;393.98;;;;;;;;;;5033004;28;19924;-61
2023/10/03 12:05:56;;;;;;;490.98;450.42;;;;;;;;;;5032946;28;20025;-60
2023/10/03 12:08:23;;;;;;;394.25;361.15;;;;;;;;;;5032967;28;20040;-60
2023/10/03 12:10:49;;;;;;;445.65;410.95;;;;;;;;;;5032241;28;20079;-62
2023/10/03 12:13:15;;;;;;;;;;;;;;;;;;5033181;28;20021;-60
2023/10/03 12:15:42;;;;;;;430.15;397.33;;;;;;;;;;5032883;28;19905;-61
2023/10/03 12:18:07;;;;;;;471.15;432.45;;;;;;;;;;5032680;28;20013;-60
2023/10/03 12:20:33;;;;;;;;;;;;;;;;;;5033376;28;20402;-59
2023/10/03 12:22:58;;;;;;;453.73;418.25;;;;;;;;;;5032229;28;20011;-60
2023/10/03 12:25:24;;;;;;;;;;;;;;;;;;5033242;28;20363;-60
2023/10/03 12:27:50;;;;;;;497.33;459.83;;;;;;;;;;5032491;28;19905;-59
2023/10/03 12:30:15;;;;;;;;;;;;;;;;;;5032634;28;20025;-60
2023/10/03 12:32:42;;;;;;;455.88;421.30;;;;;;;;;;5032011;28;19913;-60
2023/10/03 12:35:08;;;;;;;444.15;405.55;;;;;;;;;;5030919;28;20160;-59
2023/10/03 12:37:34;;;;;;;534.42;485.30;;;;;;;;;;5032256;28;20100;-59
2023/10/03 12:40:04;;;;;;;529.55;486.42;;;;;;;;;;5031965;28;20018;-59
2023/10/03 12:42:29;;;;;;;538.42;493.48;;;;;;;;;;5032250;28;20068;-60
2023/10/03 12:44:56;;;;;;;;;;;;;;;;;;5032774;28;20022;-60
2023/10/03 12:47:21;;;;;;;502.48;461.77;;;;;;;;;;5032243;28;19951;-60
2023/10/03 12:49:47;;;;;;;;;;;;;;;;;;5032760;28;20052;-60
2023/10/03 12:52:12;;;;;;;389.25;356.38;;;;;;;;;;5032344;28;19905;-61
2023/10/03 12:54:38;;;;;;;463.17;424.10;;;;;;;;;;5031984;28;20017;-61
2023/10/03 12:57:03;;;;;;;473.73;422.25;;;;;;;;;;5032034;28;20025;-60
2023/10/03 12:59:30;;;;;;;482.48;445.85;;;;;;;;;;5031424;28;20041;-59
2023/10/03 13:01:57;;;;;;;;;;;;;;;;;;5032051;28;20085;-60
2023/10/03 13:04:23;;;;;;;396.88;363.13;;;;;;;;;;5031994;28;19936;-59
2023/10/03 13:06:50;;;;;;;;;;;;;;;;;;5031017;28;20086;-59
2023/10/03 13:09:16;;;;;;;403.23;369.48;;;;;;;;;;5032084;28;20000;-61
2023/10/03 13:11:41;;;;;;;603.58;540.28;;;;;;;;;;5032621;28;20028;-59
2023/10/03 13:14:07;;;;;;;;;;;;;;;;;;5032194;28;20057;-60
2023/10/03 13:16:34;;;;;;;468.55;429.88;;;;;;;;;;5031609;28;20373;-60
2023/10/03 13:19:00;;;;;;;;;;;;;;;;;;5031848;28;20075;-60
2023/10/03 13:21:25;;;;;;;456.77;421.88;;;;;;;;;;5031053;28;19905;-60
2023/10/03 13:23:51;;;;;;;;;;;;;;;;;;5031668;28;20485;-59
2023/10/03 13:26:16;;;;;;;440.13;407.48;;;;;;;;;;5030384;28;20051;-60
2023/10/03 13:28:41;;;;;;;;;;;;;;;;;;5032512;28;20061;-59
2023/10/03 13:31:06;;;;;;;459.98;425.38;;;;;;;;;;5031073;28;20289;-60
2023/10/03 13:33:34;;;;;;;424.83;390.53;;;;;;;;;;5031286;28;20014;-60
2023/10/03 13:35:59;;;;;;;500.30;459.45;;;;;;;;;;5031426;28;20465;-60
2023/10/03 13:38:25;;;;;;;;;;;;;;;;;;5032017;28;20021;-60
2023/10/03 13:40:50;;;;;;;990.42;563.90;;;;;;;;;;5030958;28;19905;-59
2023/10/03 13:43:18;;;;;;;;;;;;;;;;;;5031900;28;20079;-59
2023/10/03 13:45:45;;;;;;;521.15;472.63;;;;;;;;;;5031653;28;19916;-59
2023/10/03 13:48:10;;;;;;;466.95;427.60;;;;;;;;;;5031480;28;20045;-60
2023/10/03 13:50:36;;;;;;;;;;;;;;;;;;5031626;28;20385;-59
2023/10/03 13:53:04;;;;;;;491.52;451.77;;;;;;;;;;5031418;28;19909;-59
2023/10/03 13:55:29;;;;;;;625.97;517.03;;;;;;;;;;5031409;28;20022;-61
2023/10/03 13:57:55;;;;;;;;;;;;;;;;;;5032045;28;20669;-60
2023/10/03 14:00:21;;;;;;;358.83;330.80;;;;;;;;;;5030689;28;19918;-60
2023/10/03 14:02:50;;;;;;;505.58;459.10;;;;;;;;;;5030857;28;20054;-60
2023/10/03 14:05:16;;;;;;;465.42;428.27;;;;;;;;;;5031129;28;20021;-60
2023/10/03 14:07:41;;;;;;;474.05;427.30;;;;;;;;;;5031582;28;20021;-60
2023/10/03 14:10:06;;;;;;;547.87;499.17;;;;;;;;;;5031067;28;20048;-60
2023/10/03 14:12:32;;;;;;;;;;;;;;;;;;5032501;28;20020;-60
2023/10/03 14:14:57;;;;;;;574.92;529.95;;;;;;;;;;5032146;28;20385;-60